sensor_id;sensor_type;location;lat;lon;timestamp;pressure;altitude;pressure_sealevel;temperature;humidity
59110;BME280;44895;47.438;18.978;2024-03-02T00:02:29;99477.75;;;10.22;100.00
59110;BME280;44895;47.438;18.978;2024-03-02T00:05:33;99478.47;;;10.14;100.00
59110;BME280;44895;47.438;18.978;2024-03-02T00:08:36;99467.53;;;10.05;100.00
59110;BME280;44895;47.438;18.978;2024-03-02T00:11:40;99461.63;;;10.26;100.00
59110;BME280;44895;47.438;18.978;2024-03-02T00:14:43;99461.91;;;10.02;100.00
59110;BME280;44895;47.438;18.978;2024-03-02T00:17:52;99455.72;;;10.24;100.00
59110;BME280;44895;47.438;18.978;2024-03-02T00:20:57;99449.91;;;10.17;100.00
59110;BME280;44895;47.438;18.978;2024-03-02T00:24:01;99442.28;;;10.19;100.00
59110;BME280;44895;47.438;18.978;2024-03-02T00:27:12;99452.44;;;10.13;100.00
59110;BME280;44895;47.438;18.978;2024-03-02T00:34:03;99457.34;;;9.74;100.00
59110;BME280;44895;47.438;18.978;2024-03-02T00:37:09;99463.44;;;9.94;100.00
59110;BME280;44895;47.438;18.978;2024-03-02T00:40:13;99456.13;;;9.81;100.00
59110;BME280;44895;47.438;18.978;2024-03-02T00:46:48;99459.22;;;9.74;100.00
59110;BME280;44895;47.438;18.978;2024-03-02T00:49:52;99466.47;;;9.65;100.00
59110;BME280;44895;47.438;18.978;2024-03-02T00:52:55;99457.66;;;9.73;100.00
59110;BME280;44895;47.438;18.978;2024-03-02T00:56:00;99453.03;;;9.59;100.00
59110;BME280;44895;47.438;18.978;2024-03-02T00:59:04;99460.16;;;9.69;100.00
59110;BME280;44895;47.438;18.978;2024-03-02T01:02:08;99458.00;;;9.94;100.00
59110;BME280;44895;47.438;18.978;2024-03-02T01:05:12;99456.13;;;9.81;100.00
59110;BME280;44895;47.438;18.978;2024-03-02T01:08:16;99457.41;;;9.97;100.00
59110;BME280;44895;47.438;18.978;2024-03-02T01:11:20;99460.50;;;9.90;100.00
59110;BME280;44895;47.438;18.978;2024-03-02T01:14:26;99452.22;;;9.87;100.00
59110;BME280;44895;47.438;18.978;2024-03-02T01:17:30;99455.19;;;9.99;100.00
59110;BME280;44895;47.438;18.978;2024-03-02T01:20:34;99448.66;;;10.00;100.00
59110;BME280;44895;47.438;18.978;2024-03-02T01:23:38;99440.44;;;9.77;100.00
59110;BME280;44895;47.438;18.978;2024-03-02T01:26:41;99434.94;;;9.55;100.00
59110;BME280;44895;47.438;18.978;2024-03-02T01:29:45;99435.78;;;9.41;100.00
59110;BME280;44895;47.438;18.978;2024-03-02T01:32:49;99430.72;;;9.62;100.00
59110;BME280;44895;47.438;18.978;2024-03-02T01:35:53;99428.53;;;9.65;100.00
59110;BME280;44895;47.438;18.978;2024-03-02T01:38:57;99418.56;;;9.74;100.00
59110;BME280;44895;47.438;18.978;2024-03-02T01:42:01;99406.59;;;9.75;100.00
59110;BME280;44895;47.438;18.978;2024-03-02T01:45:05;99412.16;;;9.70;100.00
59110;BME280;44895;47.438;18.978;2024-03-02T01:48:10;99398.59;;;9.70;100.00
59110;BME280;44895;47.438;18.978;2024-03-02T01:51:13;99410.13;;;9.75;100.00
59110;BME280;44895;47.438;18.978;2024-03-02T01:54:18;99420.06;;;9.66;100.00
59110;BME280;44895;47.438;18.978;2024-03-02T01:57:21;99418.88;;;9.72;100.00
59110;BME280;44895;47.438;18.978;2024-03-02T02:00:25;99412.34;;;9.73;100.00
59110;BME280;44895;47.438;18.978;2024-03-02T02:03:29;99412.94;;;9.56;100.00
59110;BME280;44895;47.438;18.978;2024-03-02T02:06:33;99423.22;;;9.45;100.00
59110;BME280;44895;47.438;18.978;2024-03-02T02:09:37;99430.34;;;9.69;100.00
59110;BME280;44895;47.438;18.978;2024-03-02T02:12:41;99433.16;;;9.64;100.00
59110;BME280;44895;47.438;18.978;2024-03-02T02:15:44;99443.78;;;9.74;100.00
59110;BME280;44895;47.438;18.978;2024-03-02T02:18:48;99449.41;;;9.64;100.00
59110;BME280;44895;47.438;18.978;2024-03-02T02:21:52;99448.28;;;9.65;100.00
59110;BME280;44895;47.438;18.978;2024-03-02T02:24:56;99451.00;;;9.51;100.00
59110;BME280;44895;47.438;18.978;2024-03-02T02:27:59;99451.00;;;9.65;100.00
59110;BME280;44895;47.438;18.978;2024-03-02T02:31:03;99446.63;;;9.55;100.00
59110;BME280;44895;47.438;18.978;2024-03-02T02:34:07;99458.16;;;9.61;100.00
59110;BME280;44895;47.438;18.978;2024-03-02T02:37:10;99454.44;;;9.57;100.00
59110;BME280;44895;47.438;18.978;2024-03-02T02:40:14;99456.31;;;9.70;100.00
59110;BME280;44895;47.438;18.978;2024-03-02T02:43:18;99444.59;;;9.61;100.00
59110;BME280;44895;47.438;18.978;2024-03-02T02:46:22;99449.78;;;9.71;100.00
59110;BME280;44895;47.438;18.978;2024-03-02T02:49:25;99450.31;;;9.59;100.00
59110;BME280;44895;47.438;18.978;2024-03-02T02:52:33;99436.78;;;9.45;100.00
59110;BME280;44895;47.438;18.978;2024-03-02T02:55:36;99437.97;;;9.25;100.00
59110;BME280;44895;47.438;18.978;2024-03-02T02:58:43;99437.28;;;9.34;100.00
59110;BME280;44895;47.438;18.978;2024-03-02T03:01:47;99438.88;;;9.49;100.00
59110;BME280;44895;47.438;18.978;2024-03-02T03:04:51;99442.09;;;9.51;100.00
59110;BME280;44895;47.438;18.978;2024-03-02T03:07:55;99446.00;;;9.44;100.00
59110;BME280;44895;47.438;18.978;2024-03-02T03:10:58;99444.09;;;9.59;100.00
59110;BME280;44895;47.438;18.978;2024-03-02T03:14:02;99442.88;;;9.51;100.00
59110;BME280;44895;47.438;18.978;2024-03-02T03:17:06;99457.75;;;9.54;100.00
59110;BME280;44895;47.438;18.978;2024-03-02T03:20:11;99456.63;;;9.55;100.00
59110;BME280;44895;47.438;18.978;2024-03-02T03:23:16;99454.53;;;9.52;100.00
59110;BME280;44895;47.438;18.978;2024-03-02T03:26:20;99449.13;;;9.52;100.00
59110;BME280;44895;47.438;18.978;2024-03-02T03:29:24;99457.25;;;9.52;100.00
59110;BME280;44895;47.438;18.978;2024-03-02T03:32:27;99452.81;;;9.28;100.00
59110;BME280;44895;47.438;18.978;2024-03-02T03:35:32;99444.59;;;9.33;100.00
59110;BME280;44895;47.438;18.978;2024-03-02T03:38:36;99440.56;;;9.17;100.00
59110;BME280;44895;47.438;18.978;2024-03-02T03:41:43;99448.81;;;9.39;100.00
59110;BME280;44895;47.438;18.978;2024-03-02T03:44:46;99453.34;;;9.44;100.00
59110;BME280;44895;47.438;18.978;2024-03-02T03:47:50;99464.97;;;9.44;100.00
59110;BME280;44895;47.438;18.978;2024-03-02T03:50:54;99470.41;;;9.44;100.00
59110;BME280;44895;47.438;18.978;2024-03-02T03:53:58;99460.75;;;9.38;100.00
59110;BME280;44895;47.438;18.978;2024-03-02T03:57:01;99460.66;;;9.43;100.00
59110;BME280;44895;47.438;18.978;2024-03-02T04:00:06;99468.69;;;9.35;100.00
59110;BME280;44895;47.438;18.978;2024-03-02T04:03:16;99467.28;;;9.37;100.00
59110;BME280;44895;47.438;18.978;2024-03-02T04:06:20;99471.78;;;9.28;100.00
59110;BME280;44895;47.438;18.978;2024-03-02T04:09:23;99474.19;;;9.29;100.00
59110;BME280;44895;47.438;18.978;2024-03-02T04:12:27;99467.66;;;9.17;100.00
59110;BME280;44895;47.438;18.978;2024-03-02T04:15:31;99485.03;;;9.29;100.00
59110;BME280;44895;47.438;18.978;2024-03-02T04:18:34;99482.22;;;9.35;100.00
59110;BME280;44895;47.438;18.978;2024-03-02T04:21:38;99488.06;;;9.28;100.00
59110;BME280;44895;47.438;18.978;2024-03-02T04:24:42;99483.75;;;9.41;100.00
59110;BME280;44895;47.438;18.978;2024-03-02T04:27:46;99482.75;;;9.37;100.00
59110;BME280;44895;47.438;18.978;2024-03-02T04:30:49;99494.19;;;8.87;100.00
59110;BME280;44895;47.438;18.978;2024-03-02T04:33:53;99486.13;;;9.14;100.00
59110;BME280;44895;47.438;18.978;2024-03-02T04:36:57;99485.47;;;8.57;100.00
59110;BME280;44895;47.438;18.978;2024-03-02T04:40:01;99491.63;;;9.09;100.00
59110;BME280;44895;47.438;18.978;2024-03-02T04:43:05;99492.31;;;9.01;100.00
59110;BME280;44895;47.438;18.978;2024-03-02T04:46:09;99496.47;;;9.12;100.00
59110;BME280;44895;47.438;18.978;2024-03-02T04:49:13;99505.31;;;8.85;100.00
59110;BME280;44895;47.438;18.978;2024-03-02T04:52:17;99489.22;;;9.08;100.00
59110;BME280;44895;47.438;18.978;2024-03-02T04:55:21;99487.53;;;9.26;100.00
59110;BME280;44895;47.438;18.978;2024-03-02T04:59:00;99492.06;;;9.30;100.00
59110;BME280;44895;47.438;18.978;2024-03-02T05:02:03;99492.38;;;9.29;100.00
59110;BME280;44895;47.438;18.978;2024-03-02T05:05:07;99501.63;;;9.42;100.00
59110;BME280;44895;47.438;18.978;2024-03-02T05:08:11;99487.47;;;9.31;100.00
59110;BME280;44895;47.438;18.978;2024-03-02T05:11:15;99488.34;;;9.12;100.00
59110;BME280;44895;47.438;18.978;2024-03-02T05:14:37;99498.09;;;9.27;100.00
59110;BME280;44895;47.438;18.978;2024-03-02T05:17:42;99502.41;;;9.28;100.00
59110;BME280;44895;47.438;18.978;2024-03-02T05:20:48;99491.03;;;9.12;100.00
59110;BME280;44895;47.438;18.978;2024-03-02T05:23:52;99495.47;;;9.22;100.00
59110;BME280;44895;47.438;18.978;2024-03-02T05:26:56;99497.59;;;9.25;100.00
59110;BME280;44895;47.438;18.978;2024-03-02T05:30:00;99505.19;;;9.23;100.00
59110;BME280;44895;47.438;18.978;2024-03-02T05:33:03;99504.38;;;9.09;100.00
59110;BME280;44895;47.438;18.978;2024-03-02T05:36:07;99500.78;;;9.13;100.00
59110;BME280;44895;47.438;18.978;2024-03-02T05:39:10;99498.06;;;9.13;100.00
59110;BME280;44895;47.438;18.978;2024-03-02T05:42:14;99489.94;;;9.13;100.00
59110;BME280;44895;47.438;18.978;2024-03-02T05:45:20;99493.47;;;9.28;100.00
59110;BME280;44895;47.438;18.978;2024-03-02T05:48:23;99498.59;;;9.29;100.00
59110;BME280;44895;47.438;18.978;2024-03-02T05:51:27;99505.72;;;9.39;100.00
59110;BME280;44895;47.438;18.978;2024-03-02T05:54:31;99512.84;;;9.35;100.00
59110;BME280;44895;47.438;18.978;2024-03-02T05:57:35;99515.06;;;9.33;100.00
59110;BME280;44895;47.438;18.978;2024-03-02T06:00:47;99526.06;;;9.23;100.00
59110;BME280;44895;47.438;18.978;2024-03-02T06:03:51;99528.13;;;9.31;100.00
59110;BME280;44895;47.438;18.978;2024-03-02T06:06:54;99528.69;;;9.28;100.00
59110;BME280;44895;47.438;18.978;2024-03-02T06:09:59;99538.22;;;9.25;100.00
59110;BME280;44895;47.438;18.978;2024-03-02T06:13:03;99543.31;;;9.13;100.00
59110;BME280;44895;47.438;18.978;2024-03-02T06:16:07;99536.13;;;9.22;100.00
59110;BME280;44895;47.438;18.978;2024-03-02T06:19:11;99537.16;;;9.40;100.00
59110;BME280;44895;47.438;18.978;2024-03-02T06:22:15;99530.13;;;9.39;100.00
59110;BME280;44895;47.438;18.978;2024-03-02T06:25:19;99544.41;;;9.12;100.00
59110;BME280;44895;47.438;18.978;2024-03-02T06:28:23;99543.88;;;9.43;100.00
59110;BME280;44895;47.438;18.978;2024-03-02T06:31:26;99542.38;;;9.51;100.00
59110;BME280;44895;47.438;18.978;2024-03-02T06:34:30;99538.97;;;9.45;100.00
59110;BME280;44895;47.438;18.978;2024-03-02T06:37:34;99537.63;;;9.14;100.00
59110;BME280;44895;47.438;18.978;2024-03-02T06:40:38;99546.19;;;9.50;100.00
59110;BME280;44895;47.438;18.978;2024-03-02T06:43:43;99542.72;;;9.63;100.00
59110;BME280;44895;47.438;18.978;2024-03-02T06:46:46;99540.28;;;9.48;100.00
59110;BME280;44895;47.438;18.978;2024-03-02T06:49:50;99540.69;;;9.55;100.00
59110;BME280;44895;47.438;18.978;2024-03-02T06:52:54;99545.00;;;9.56;100.00
59110;BME280;44895;47.438;18.978;2024-03-02T06:55:59;99542.41;;;9.65;100.00
59110;BME280;44895;47.438;18.978;2024-03-02T06:59:03;99542.19;;;9.47;100.00
59110;BME280;44895;47.438;18.978;2024-03-02T07:02:07;99539.47;;;9.47;100.00
59110;BME280;44895;47.438;18.978;2024-03-02T07:05:12;99537.19;;;9.68;100.00
59110;BME280;44895;47.438;18.978;2024-03-02T07:08:16;99528.16;;;9.73;100.00
59110;BME280;44895;47.438;18.978;2024-03-02T07:11:20;99542.91;;;9.53;100.00
59110;BME280;44895;47.438;18.978;2024-03-02T07:14:23;99541.50;;;9.55;100.00
59110;BME280;44895;47.438;18.978;2024-03-02T07:17:50;99544.03;;;9.79;100.00
59110;BME280;44895;47.438;18.978;2024-03-02T07:20:53;99550.22;;;9.80;100.00
59110;BME280;44895;47.438;18.978;2024-03-02T07:23:59;99552.44;;;9.64;100.00
59110;BME280;44895;47.438;18.978;2024-03-02T07:27:03;99554.97;;;9.74;100.00
59110;BME280;44895;47.438;18.978;2024-03-02T07:30:07;99555.66;;;9.66;100.00
59110;BME280;44895;47.438;18.978;2024-03-02T07:33:11;99552.25;;;9.60;100.00
59110;BME280;44895;47.438;18.978;2024-03-02T07:36:15;99560.69;;;9.26;100.00
59110;BME280;44895;47.438;18.978;2024-03-02T07:39:19;99561.56;;;9.54;100.00
59110;BME280;44895;47.438;18.978;2024-03-02T07:42:22;99561.44;;;9.45;100.00
59110;BME280;44895;47.438;18.978;2024-03-02T07:45:26;99562.28;;;9.60;100.00
59110;BME280;44895;47.438;18.978;2024-03-02T07:48:30;99564.00;;;9.84;100.00
59110;BME280;44895;47.438;18.978;2024-03-02T07:51:34;99562.47;;;9.50;100.00
59110;BME280;44895;47.438;18.978;2024-03-02T07:54:38;99573.69;;;9.43;100.00
59110;BME280;44895;47.438;18.978;2024-03-02T07:57:42;99576.75;;;9.69;100.00
59110;BME280;44895;47.438;18.978;2024-03-02T08:00:46;99578.50;;;9.46;100.00
59110;BME280;44895;47.438;18.978;2024-03-02T08:03:50;99576.97;;;9.26;100.00
59110;BME280;44895;47.438;18.978;2024-03-02T08:06:54;99581.53;;;9.44;100.00
59110;BME280;44895;47.438;18.978;2024-03-02T08:09:58;99575.63;;;9.70;100.00
59110;BME280;44895;47.438;18.978;2024-03-02T08:13:02;99569.19;;;9.52;100.00
59110;BME280;44895;47.438;18.978;2024-03-02T08:16:05;99578.59;;;9.41;100.00
59110;BME280;44895;47.438;18.978;2024-03-02T08:19:12;99591.03;;;9.28;100.00
59110;BME280;44895;47.438;18.978;2024-03-02T08:22:16;99582.28;;;9.17;100.00
59110;BME280;44895;47.438;18.978;2024-03-02T08:25:20;99584.63;;;9.38;100.00
59110;BME280;44895;47.438;18.978;2024-03-02T08:28:24;99590.06;;;9.38;100.00
59110;BME280;44895;47.438;18.978;2024-03-02T08:31:27;99578.75;;;9.17;100.00
59110;BME280;44895;47.438;18.978;2024-03-02T08:34:31;99578.03;;;9.58;100.00
59110;BME280;44895;47.438;18.978;2024-03-02T08:37:38;99573.50;;;9.39;100.00
59110;BME280;44895;47.438;18.978;2024-03-02T08:40:43;99576.03;;;9.63;100.00
59110;BME280;44895;47.438;18.978;2024-03-02T08:43:47;99583.69;;;8.95;100.00
59110;BME280;44895;47.438;18.978;2024-03-02T08:46:51;99577.72;;;9.12;100.00
59110;BME280;44895;47.438;18.978;2024-03-02T08:49:55;99583.91;;;9.32;100.00
59110;BME280;44895;47.438;18.978;2024-03-02T08:52:59;99584.28;;;9.72;100.00
59110;BME280;44895;47.438;18.978;2024-03-02T08:56:03;99582.06;;;9.60;100.00
59110;BME280;44895;47.438;18.978;2024-03-02T08:59:08;99586.97;;;9.58;100.00
59110;BME280;44895;47.438;18.978;2024-03-02T09:02:12;99579.38;;;9.74;100.00
59110;BME280;44895;47.438;18.978;2024-03-02T09:05:16;99580.84;;;9.53;100.00
59110;BME280;44895;47.438;18.978;2024-03-02T09:08:19;99578.44;;;9.65;100.00
59110;BME280;44895;47.438;18.978;2024-03-02T09:11:23;99584.47;;;9.15;100.00
59110;BME280;44895;47.438;18.978;2024-03-02T09:14:27;99585.16;;;9.21;100.00
59110;BME280;44895;47.438;18.978;2024-03-02T09:17:30;99586.66;;;9.60;100.00
59110;BME280;44895;47.438;18.978;2024-03-02T09:20:34;99580.13;;;9.47;100.00
59110;BME280;44895;47.438;18.978;2024-03-02T09:23:38;99590.28;;;9.41;100.00
59110;BME280;44895;47.438;18.978;2024-03-02T09:26:43;99589.53;;;9.36;100.00
59110;BME280;44895;47.438;18.978;2024-03-02T09:29:47;99589.53;;;9.03;100.00
59110;BME280;44895;47.438;18.978;2024-03-02T09:32:51;99589.56;;;9.50;100.00
59110;BME280;44895;47.438;18.978;2024-03-02T09:35:54;99589.88;;;9.15;100.00
59110;BME280;44895;47.438;18.978;2024-03-02T09:38:58;99595.53;;;9.19;100.00
59110;BME280;44895;47.438;18.978;2024-03-02T09:42:03;99597.31;;;9.42;100.00
59110;BME280;44895;47.438;18.978;2024-03-02T09:45:09;99593.72;;;9.28;100.00
59110;BME280;44895;47.438;18.978;2024-03-02T09:48:12;99592.97;;;9.41;100.00
59110;BME280;44895;47.438;18.978;2024-03-02T09:51:16;99595.88;;;9.12;100.00
59110;BME280;44895;47.438;18.978;2024-03-02T09:54:23;99593.13;;;9.17;100.00
59110;BME280;44895;47.438;18.978;2024-03-02T09:57:27;99590.50;;;9.59;100.00
59110;BME280;44895;47.438;18.978;2024-03-02T10:00:31;99592.00;;;9.65;100.00
59110;BME280;44895;47.438;18.978;2024-03-02T10:03:37;99594.47;;;9.34;100.00
59110;BME280;44895;47.438;18.978;2024-03-02T10:06:40;99578.28;;;9.28;100.00
59110;BME280;44895;47.438;18.978;2024-03-02T10:09:46;99588.34;;;9.42;100.00
59110;BME280;44895;47.438;18.978;2024-03-02T10:13:03;99579.25;;;9.52;100.00
59110;BME280;44895;47.438;18.978;2024-03-02T10:16:13;99596.44;;;9.28;100.00
59110;BME280;44895;47.438;18.978;2024-03-02T10:19:21;99585.38;;;9.71;100.00
59110;BME280;44895;47.438;18.978;2024-03-02T10:22:25;99583.03;;;9.51;100.00
59110;BME280;44895;47.438;18.978;2024-03-02T10:25:31;99589.00;;;9.20;100.00
59110;BME280;44895;47.438;18.978;2024-03-02T10:28:35;99588.47;;;9.18;100.00
59110;BME280;44895;47.438;18.978;2024-03-02T10:31:40;99587.44;;;9.33;100.00
59110;BME280;44895;47.438;18.978;2024-03-02T10:34:46;99588.66;;;9.40;100.00
59110;BME280;44895;47.438;18.978;2024-03-02T10:37:52;99580.47;;;9.59;100.00
59110;BME280;44895;47.438;18.978;2024-03-02T10:40:57;99579.59;;;9.78;100.00
59110;BME280;44895;47.438;18.978;2024-03-02T10:44:07;99575.56;;;9.89;100.00
59110;BME280;44895;47.438;18.978;2024-03-02T10:47:12;99576.31;;;9.48;100.00
59110;BME280;44895;47.438;18.978;2024-03-02T10:50:17;99576.97;;;9.87;100.00
59110;BME280;44895;47.438;18.978;2024-03-02T10:53:20;99577.78;;;9.26;100.00
59110;BME280;44895;47.438;18.978;2024-03-02T10:56:29;99573.84;;;9.79;100.00
59110;BME280;44895;47.438;18.978;2024-03-02T11:02:38;99568.72;;;9.92;100.00
59110;BME280;44895;47.438;18.978;2024-03-02T11:05:44;99573.63;;;9.76;100.00
59110;BME280;44895;47.438;18.978;2024-03-02T11:08:50;99571.03;;;9.85;100.00
59110;BME280;44895;47.438;18.978;2024-03-02T11:12:11;99567.91;;;9.91;100.00
59110;BME280;44895;47.438;18.978;2024-03-02T11:15:18;99561.91;;;9.67;100.00
59110;BME280;44895;47.438;18.978;2024-03-02T11:18:23;99556.84;;;10.02;100.00
59110;BME280;44895;47.438;18.978;2024-03-02T11:21:27;99559.06;;;10.27;100.00
59110;BME280;44895;47.438;18.978;2024-03-02T11:24:31;99558.44;;;10.31;100.00
59110;BME280;44895;47.438;18.978;2024-03-02T11:30:49;99560.47;;;10.39;100.00
59110;BME280;44895;47.438;18.978;2024-03-02T11:33:53;99558.66;;;9.65;100.00
59110;BME280;44895;47.438;18.978;2024-03-02T11:36:57;99556.38;;;9.86;100.00
59110;BME280;44895;47.438;18.978;2024-03-02T11:40:02;99556.84;;;10.02;100.00
59110;BME280;44895;47.438;18.978;2024-03-02T11:43:06;99555.34;;;10.09;100.00
59110;BME280;44895;47.438;18.978;2024-03-02T11:46:11;99550.28;;;10.31;100.00
59110;BME280;44895;47.438;18.978;2024-03-02T11:49:38;99550.38;;;10.53;100.00
59110;BME280;44895;47.438;18.978;2024-03-02T11:52:43;99542.50;;;10.66;100.00
59110;BME280;44895;47.438;18.978;2024-03-02T11:55:47;99559.81;;;10.56;100.00
59110;BME280;44895;47.438;18.978;2024-03-02T11:58:53;99550.06;;;10.55;100.00
59110;BME280;44895;47.438;18.978;2024-03-02T12:01:58;99554.66;;;10.68;100.00
59110;BME280;44895;47.438;18.978;2024-03-02T12:05:02;99546.38;;;10.23;100.00
59110;BME280;44895;47.438;18.978;2024-03-02T12:08:07;99551.41;;;10.16;100.00
59110;BME280;44895;47.438;18.978;2024-03-02T12:11:13;99554.97;;;10.67;100.00
59110;BME280;44895;47.438;18.978;2024-03-02T12:14:17;99545.22;;;10.01;100.00
59110;BME280;44895;47.438;18.978;2024-03-02T12:17:21;99547.25;;;10.46;100.00
59110;BME280;44895;47.438;18.978;2024-03-02T12:20:26;99543.75;;;10.32;100.00
59110;BME280;44895;47.438;18.978;2024-03-02T12:23:31;99550.16;;;10.86;100.00
59110;BME280;44895;47.438;18.978;2024-03-02T12:26:34;99556.56;;;10.68;100.00
59110;BME280;44895;47.438;18.978;2024-03-02T12:29:39;99548.34;;;10.59;100.00
59110;BME280;44895;47.438;18.978;2024-03-02T12:32:44;99558.63;;;10.34;100.00
59110;BME280;44895;47.438;18.978;2024-03-02T12:35:49;99551.75;;;9.86;100.00
59110;BME280;44895;47.438;18.978;2024-03-02T12:38:53;99555.84;;;9.98;100.00
59110;BME280;44895;47.438;18.978;2024-03-02T12:41:57;99556.84;;;10.16;100.00
59110;BME280;44895;47.438;18.978;2024-03-02T12:45:00;99547.28;;;10.18;100.00
59110;BME280;44895;47.438;18.978;2024-03-02T12:48:05;99550.22;;;9.94;100.00
59110;BME280;44895;47.438;18.978;2024-03-02T12:51:08;99550.63;;;10.15;100.00
59110;BME280;44895;47.438;18.978;2024-03-02T12:54:12;99551.16;;;10.03;100.00
59110;BME280;44895;47.438;18.978;2024-03-02T12:57:19;99559.19;;;9.67;100.00
59110;BME280;44895;47.438;18.978;2024-03-02T13:00:23;99553.56;;;10.05;100.00
59110;BME280;44895;47.438;18.978;2024-03-02T13:03:29;99556.06;;;10.01;100.00
59110;BME280;44895;47.438;18.978;2024-03-02T13:06:32;99554.25;;;10.10;100.00
59110;BME280;44895;47.438;18.978;2024-03-02T13:09:37;99547.91;;;10.15;100.00
59110;BME280;44895;47.438;18.978;2024-03-02T13:12:41;99551.41;;;10.16;100.00
59110;BME280;44895;47.438;18.978;2024-03-02T13:15:44;99534.94;;;10.12;100.00
59110;BME280;44895;47.438;18.978;2024-03-02T13:18:49;99552.44;;;10.20;100.00
59110;BME280;44895;47.438;18.978;2024-03-02T13:21:52;99545.50;;;10.14;100.00
59110;BME280;44895;47.438;18.978;2024-03-02T13:24:56;99546.72;;;10.07;100.00
59110;BME280;44895;47.438;18.978;2024-03-02T13:28:00;99547.41;;;10.13;100.00
59110;BME280;44895;47.438;18.978;2024-03-02T13:31:04;99552.84;;;9.85;100.00
59110;BME280;44895;47.438;18.978;2024-03-02T13:34:08;99558.06;;;10.09;100.00
59110;BME280;44895;47.438;18.978;2024-03-02T13:37:12;99563.41;;;9.59;100.00
59110;BME280;44895;47.438;18.978;2024-03-02T13:40:16;99553.91;;;9.28;100.00
59110;BME280;44895;47.438;18.978;2024-03-02T13:43:24;99560.78;;;9.21;100.00
59110;BME280;44895;47.438;18.978;2024-03-02T13:46:28;99566.72;;;9.23;100.00
59110;BME280;44895;47.438;18.978;2024-03-02T13:49:32;99567.91;;;9.17;100.00
59110;BME280;44895;47.438;18.978;2024-03-02T13:52:46;99570.50;;;9.55;100.00
59110;BME280;44895;47.438;18.978;2024-03-02T13:55:50;99567.78;;;9.55;100.00
59110;BME280;44895;47.438;18.978;2024-03-02T13:58:54;99571.88;;;9.38;100.00
59110;BME280;44895;47.438;18.978;2024-03-02T14:01:58;99569.38;;;9.09;100.00
59110;BME280;44895;47.438;18.978;2024-03-02T14:05:02;99574.75;;;9.28;100.00
59110;BME280;44895;47.438;18.978;2024-03-02T14:08:06;99580.97;;;9.14;100.00
59110;BME280;44895;47.438;18.978;2024-03-02T14:11:10;99578.25;;;9.48;100.00
59110;BME280;44895;47.438;18.978;2024-03-02T14:14:18;99581.28;;;9.27;100.00
59110;BME280;44895;47.438;18.978;2024-03-02T14:17:22;99582.22;;;9.36;100.00
59110;BME280;44895;47.438;18.978;2024-03-02T14:20:25;99584.19;;;8.97;100.00
59110;BME280;44895;47.438;18.978;2024-03-02T14:23:29;99585.03;;;9.31;100.00
59110;BME280;44895;47.438;18.978;2024-03-02T14:26:33;99573.97;;;8.94;100.00
59110;BME280;44895;47.438;18.978;2024-03-02T14:29:38;99583.66;;;9.14;100.00
59110;BME280;44895;47.438;18.978;2024-03-02T14:32:43;99580.97;;;9.14;100.00
59110;BME280;44895;47.438;18.978;2024-03-02T14:35:46;99572.44;;;9.21;100.00
59110;BME280;44895;47.438;18.978;2024-03-02T14:38:50;99578.47;;;9.32;100.00
59110;BME280;44895;47.438;18.978;2024-03-02T14:41:54;99580.69;;;9.30;100.00
59110;BME280;44895;47.438;18.978;2024-03-02T14:44:58;99577.59;;;9.37;100.00
59110;BME280;44895;47.438;18.978;2024-03-02T14:48:03;99579.59;;;9.31;100.00
59110;BME280;44895;47.438;18.978;2024-03-02T14:51:07;99579.97;;;9.24;100.00
59110;BME280;44895;47.438;18.978;2024-03-02T14:54:11;99577.66;;;9.18;100.00
59110;BME280;44895;47.438;18.978;2024-03-02T14:57:14;99571.44;;;9.17;100.00
59110;BME280;44895;47.438;18.978;2024-03-02T15:00:18;99572.69;;;9.39;100.00
59110;BME280;44895;47.438;18.978;2024-03-02T15:03:22;99566.75;;;9.37;100.00
59110;BME280;44895;47.438;18.978;2024-03-02T15:06:26;99567.28;;;9.39;100.00
59110;BME280;44895;47.438;18.978;2024-03-02T15:09:30;99567.38;;;9.34;100.00
59110;BME280;44895;47.438;18.978;2024-03-02T15:12:33;99569.22;;;9.19;100.00
59110;BME280;44895;47.438;18.978;2024-03-02T15:15:37;99565.34;;;9.39;100.00
59110;BME280;44895;47.438;18.978;2024-03-02T15:18:41;99569.31;;;9.61;100.00
59110;BME280;44895;47.438;18.978;2024-03-02T15:21:44;99571.59;;;9.68;100.00
59110;BME280;44895;47.438;18.978;2024-03-02T15:24:48;99573.44;;;9.72;100.00
59110;BME280;44895;47.438;18.978;2024-03-02T15:27:51;99575.81;;;9.60;100.00
59110;BME280;44895;47.438;18.978;2024-03-02T15:30:55;99574.63;;;9.66;100.00
59110;BME280;44895;47.438;18.978;2024-03-02T15:33:59;99569.91;;;9.58;100.00
59110;BME280;44895;47.438;18.978;2024-03-02T15:37:03;99571.72;;;9.62;100.00
59110;BME280;44895;47.438;18.978;2024-03-02T15:40:07;99565.44;;;9.34;100.00
59110;BME280;44895;47.438;18.978;2024-03-02T15:43:11;99565.69;;;9.66;100.00
59110;BME280;44895;47.438;18.978;2024-03-02T15:46:15;99576.75;;;9.69;100.00
59110;BME280;44895;47.438;18.978;2024-03-02T15:49:19;99576.75;;;9.69;100.00
59110;BME280;44895;47.438;18.978;2024-03-02T15:52:23;99575.03;;;9.59;100.00
59110;BME280;44895;47.438;18.978;2024-03-02T15:55:27;99564.50;;;9.72;100.00
59110;BME280;44895;47.438;18.978;2024-03-02T15:58:30;99571.53;;;9.73;100.00
59110;BME280;44895;47.438;18.978;2024-03-02T16:01:34;99569.69;;;9.54;100.00
59110;BME280;44895;47.438;18.978;2024-03-02T16:04:38;99577.47;;;9.28;100.00
59110;BME280;44895;47.438;18.978;2024-03-02T16:07:42;99574.50;;;9.57;100.00
59110;BME280;44895;47.438;18.978;2024-03-02T16:10:45;99572.81;;;9.48;100.00
59110;BME280;44895;47.438;18.978;2024-03-02T16:13:49;99574.81;;;9.56;100.00
59110;BME280;44895;47.438;18.978;2024-03-02T16:16:53;99582.38;;;9.59;100.00